createdAt,value
2019-03-27T00:00:00.611Z,5.07
2019-03-27T00:00:04.861Z,5.07
2019-03-27T00:00:09.164Z,5.07
2019-03-27T00:00:13.555Z,5.08
2019-03-27T00:00:17.852Z,5.07
2019-03-27T00:00:22.153Z,5.07
2019-03-27T00:00:26.475Z,5.06
2019-03-27T00:00:30.773Z,5.06
2019-03-27T00:00:35.145Z,5.07
2019-03-27T00:00:39.348Z,5.06
2019-03-27T00:00:43.546Z,5.06
2019-03-27T00:00:47.840Z,5.05
2019-03-27T00:00:52.136Z,5.07
2019-03-27T00:00:56.427Z,5.06
2019-03-27T00:01:00.738Z,5.06
2019-03-27T00:01:05.237Z,5.06
2019-03-27T00:01:09.530Z,5.05
2019-03-27T00:01:13.735Z,5.06
2019-03-27T00:01:17.942Z,5.05
2019-03-27T00:01:22.148Z,5.05
2019-03-27T00:01:26.433Z,5.05
2019-03-27T00:01:30.729Z,5.05
2019-03-27T00:01:35.028Z,5.04
2019-03-27T00:01:39.322Z,5.06
2019-03-27T00:01:43.611Z,5.05
2019-03-27T00:01:47.899Z,5.03
2019-03-27T00:01:52.193Z,5.04
2019-03-27T00:01:56.501Z,5.04
2019-03-27T00:02:00.793Z,5.04
2019-03-27T00:02:05.199Z,5.04
2019-03-27T00:02:09.496Z,5.04
2019-03-27T00:02:13.782Z,5.04
2019-03-27T00:02:18.182Z,5.04
2019-03-27T00:02:22.373Z,5.04
2019-03-27T00:02:26.560Z,5.04
2019-03-27T00:02:30.857Z,5.03
2019-03-27T00:02:35.156Z,5.04
2019-03-27T00:02:39.403Z,5.04
2019-03-27T00:02:43.608Z,5.04
2019-03-27T00:02:47.900Z,5.04
2019-03-27T00:02:52.190Z,5.04
2019-03-27T00:02:56.496Z,5.05
2019-03-27T00:03:00.686Z,5.05
2019-03-27T00:03:04.973Z,5.04
2019-03-27T00:03:09.327Z,5.04
2019-03-27T00:03:13.619Z,5.04
2019-03-27T00:03:17.819Z,5.04
2019-03-27T00:03:22.119Z,5.04
2019-03-27T00:03:26.406Z,5.04
2019-03-27T00:03:30.694Z,5.04
2019-03-27T00:03:34.989Z,5.03
2019-03-27T00:03:39.285Z,5.03
2019-03-27T00:03:43.573Z,5.04
2019-03-27T00:03:47.865Z,5.04
2019-03-27T00:03:52.055Z,5.03
2019-03-27T00:03:56.347Z,5.04
2019-03-27T00:04:00.735Z,5.04
2019-03-27T00:04:05.028Z,5.04
2019-03-27T00:04:09.321Z,5.04
2019-03-27T00:04:13.658Z,5.03
2019-03-27T00:04:17.960Z,5.03
2019-03-27T00:04:22.253Z,5.04
2019-03-27T00:04:26.555Z,5.04
2019-03-27T00:04:30.848Z,5.04
2019-03-27T00:04:35.139Z,5.04
2019-03-27T00:04:39.432Z,5.03
2019-03-27T00:04:43.729Z,5.04
2019-03-27T00:04:48.029Z,5.04
2019-03-27T00:04:52.249Z,5.04
2019-03-27T00:04:56.540Z,5.04
2019-03-27T00:05:00.733Z,5.04
2019-03-27T00:05:05.035Z,5.04
2019-03-27T00:05:09.368Z,5.04
2019-03-27T00:05:13.661Z,5.04
2019-03-27T00:05:17.963Z,5.04
2019-03-27T00:05:22.258Z,5.04
2019-03-27T00:05:26.562Z,5.04
2019-03-27T00:05:30.661Z,5.04
2019-03-27T00:05:34.953Z,5.04
2019-03-27T00:05:39.253Z,5.04
2019-03-27T00:05:43.554Z,5.05
2019-03-27T00:05:47.850Z,5.04
2019-03-27T00:05:52.208Z,5.04
2019-03-27T00:05:56.509Z,5.04
2019-03-27T00:06:00.866Z,5.05
2019-03-27T00:06:05.085Z,5.05
2019-03-27T00:06:09.375Z,5.05
2019-03-27T00:06:13.679Z,5.05
2019-03-27T00:06:17.989Z,5.04
2019-03-27T00:06:22.285Z,5.06
2019-03-27T00:06:26.572Z,5.05
2019-03-27T00:06:30.880Z,5.05
2019-03-27T00:06:35.179Z,5.05
2019-03-27T00:06:39.371Z,5.05
2019-03-27T00:06:43.660Z,5.05
2019-03-27T00:06:47.946Z,5.04
2019-03-27T00:06:52.236Z,5.04
2019-03-27T00:06:56.533Z,5.05
2019-03-27T00:07:00.732Z,5.04
2019-03-27T00:07:05.119Z,5.04
2019-03-27T00:07:09.405Z,5.05
2019-03-27T00:07:13.597Z,5.05
2019-03-27T00:07:17.892Z,5.05
2019-03-27T00:07:22.112Z,5.05
2019-03-27T00:07:26.410Z,5.05
2019-03-27T00:07:30.702Z,5.05
2019-03-27T00:07:34.993Z,5.04
2019-03-27T00:07:39.290Z,5.05
2019-03-27T00:07:43.592Z,5.05
2019-03-27T00:07:47.880Z,5.05
2019-03-27T00:07:52.171Z,5.04
2019-03-27T00:07:56.472Z,5.05
2019-03-27T00:08:00.764Z,5.05
2019-03-27T00:08:05.056Z,5.04
2019-03-27T00:08:09.351Z,5.04
2019-03-27T00:08:13.646Z,5.05
2019-03-27T00:08:17.942Z,5.04
2019-03-27T00:08:22.305Z,5.04
2019-03-27T00:08:26.611Z,5.04
2019-03-27T00:08:30.977Z,5.04
2019-03-27T00:08:35.284Z,5.04
2019-03-27T00:08:39.578Z,5.05
2019-03-27T00:08:43.845Z,5.04
2019-03-27T00:08:48.133Z,5.03
2019-03-27T00:08:52.329Z,5.03
2019-03-27T00:08:56.619Z,5.03
2019-03-27T00:09:00.873Z,5.04
2019-03-27T00:09:05.199Z,5.04
2019-03-27T00:09:09.494Z,5.03
2019-03-27T00:09:13.793Z,5.04
2019-03-27T00:09:18.139Z,5.04
2019-03-27T00:09:22.432Z,5.02
2019-03-27T00:09:26.782Z,5.03
2019-03-27T00:09:31.113Z,5.03
2019-03-27T00:09:35.401Z,5.03
2019-03-27T00:09:39.686Z,5.03
2019-03-27T00:09:43.978Z,5.02
2019-03-27T00:09:48.172Z,5.02
2019-03-27T00:09:52.463Z,5.02
2019-03-27T00:09:56.756Z,5.02
2019-03-27T00:10:01.154Z,5.02
2019-03-27T00:10:05.446Z,5.02
2019-03-27T00:10:09.752Z,5.03
2019-03-27T00:10:14.042Z,5.01
2019-03-27T00:10:18.337Z,5.01
2019-03-27T00:10:22.630Z,5.01
2019-03-27T00:10:26.833Z,5.01
2019-03-27T00:10:31.120Z,5.01
2019-03-27T00:10:35.451Z,5.01
2019-03-27T00:10:39.741Z,5.01
2019-03-27T00:10:43.840Z,5.02
2019-03-27T00:10:48.129Z,5.01
2019-03-27T00:10:52.419Z,5.01
2019-03-27T00:10:56.731Z,5.01
2019-03-27T00:11:01.032Z,5.01
2019-03-27T00:11:05.242Z,5
2019-03-27T00:11:09.535Z,5
2019-03-27T00:11:16.833Z,5
2019-03-27T00:11:21.132Z,5
2019-03-27T00:11:25.422Z,4.99
2019-03-27T00:11:29.612Z,5
2019-03-27T00:11:33.903Z,4.99
2019-03-27T00:11:38.246Z,5
2019-03-27T00:11:42.553Z,5
2019-03-27T00:11:46.850Z,5
2019-03-27T00:11:51.160Z,4.99
2019-03-27T00:11:55.384Z,4.99
2019-03-27T00:11:59.674Z,5
2019-03-27T00:12:03.966Z,4.99
2019-03-27T00:12:08.257Z,4.99
2019-03-27T00:12:12.542Z,4.99
2019-03-27T00:12:16.842Z,4.99
2019-03-27T00:12:21.044Z,4.97
2019-03-27T00:12:25.340Z,4.98
2019-03-27T00:12:29.650Z,4.99
2019-03-27T00:12:33.946Z,4.98
2019-03-27T00:12:38.148Z,4.98
2019-03-27T00:12:42.487Z,4.98
2019-03-27T00:12:46.726Z,4.98
2019-03-27T00:12:51.020Z,4.97
2019-03-27T00:12:55.312Z,4.97
2019-03-27T00:12:59.610Z,4.98
2019-03-27T00:13:03.906Z,4.97
2019-03-27T00:13:08.200Z,4.97
2019-03-27T00:13:12.507Z,4.97
2019-03-27T00:13:16.799Z,4.97
2019-03-27T00:13:21.094Z,4.97
2019-03-27T00:13:25.293Z,4.97
2019-03-27T00:13:29.594Z,4.97
2019-03-27T00:13:33.962Z,4.97
2019-03-27T00:13:38.157Z,4.96
2019-03-27T00:13:42.462Z,4.97
2019-03-27T00:13:46.757Z,4.96
2019-03-27T00:13:51.059Z,4.96
2019-03-27T00:13:55.364Z,4.95
2019-03-27T00:13:59.654Z,4.96
2019-03-27T00:14:03.951Z,4.96
2019-03-27T00:14:08.256Z,4.95
2019-03-27T00:14:12.555Z,4.95
2019-03-27T00:14:16.854Z,4.95
2019-03-27T00:14:21.155Z,4.94
2019-03-27T00:14:25.252Z,4.94
2019-03-27T00:14:29.545Z,4.94
2019-03-27T00:14:33.734Z,4.95
2019-03-27T00:14:37.931Z,4.95
2019-03-27T00:14:42.195Z,4.96
2019-03-27T00:14:46.516Z,4.94
2019-03-27T00:14:50.811Z,4.93
2019-03-27T00:14:55.106Z,4.94
2019-03-27T00:15:14.634Z,4.93
2019-03-27T00:15:18.945Z,4.94
2019-03-27T00:15:23.146Z,4.93
2019-03-27T00:15:27.351Z,4.92
2019-03-27T00:15:31.648Z,4.92
2019-03-27T00:15:35.945Z,4.92
2019-03-27T00:15:40.235Z,4.92
2019-03-27T00:15:44.527Z,4.92
2019-03-27T00:15:48.890Z,4.93
2019-03-27T00:15:53.213Z,4.91
2019-03-27T00:15:57.522Z,4.91
2019-03-27T00:16:01.824Z,4.91
2019-03-27T00:16:06.123Z,4.91
2019-03-27T00:16:10.414Z,4.91
2019-03-27T00:16:14.709Z,4.91
2019-03-27T00:16:19.000Z,4.9
2019-03-27T00:16:23.295Z,4.91
2019-03-27T00:16:27.593Z,4.9
2019-03-27T00:16:31.883Z,4.9
2019-03-27T00:16:36.186Z,4.9
2019-03-27T00:16:40.473Z,4.9
2019-03-27T00:16:44.764Z,4.9
2019-03-27T00:16:49.063Z,4.9
2019-03-27T00:16:53.351Z,4.9
2019-03-27T00:16:57.639Z,4.9
2019-03-27T00:17:01.852Z,4.89
2019-03-27T00:17:06.146Z,4.89
2019-03-27T00:17:10.430Z,4.89
2019-03-27T00:17:14.633Z,4.89
2019-03-27T00:17:18.918Z,4.88
2019-03-27T00:17:23.119Z,4.87
2019-03-27T00:17:27.318Z,4.88
2019-03-27T00:17:31.613Z,4.88
2019-03-27T00:17:35.915Z,4.87
2019-03-27T00:17:40.207Z,4.86
2019-03-27T00:17:44.515Z,4.87
2019-03-27T00:17:48.819Z,4.85
2019-03-27T00:17:53.017Z,4.87
2019-03-27T00:17:57.325Z,4.85
2019-03-27T00:18:01.620Z,4.85
2019-03-27T00:18:05.932Z,4.85
2019-03-27T00:18:10.228Z,4.84
2019-03-27T00:18:14.518Z,4.84
2019-03-27T00:18:18.715Z,4.83
2019-03-27T00:18:23.014Z,4.83
2019-03-27T00:18:27.115Z,4.84
2019-03-27T00:18:31.405Z,4.82
2019-03-27T00:18:35.723Z,4.83
2019-03-27T00:18:40.009Z,4.83
2019-03-27T00:18:44.305Z,4.82
2019-03-27T00:18:48.671Z,4.82
2019-03-27T00:18:52.774Z,4.81
2019-03-27T00:18:57.139Z,4.81
2019-03-27T00:19:01.463Z,4.81
2019-03-27T00:19:05.752Z,4.81
2019-03-27T00:19:10.051Z,4.81
2019-03-27T00:19:14.348Z,4.8
2019-03-27T00:19:18.652Z,4.8
2019-03-27T00:19:22.958Z,4.81
2019-03-27T00:19:27.271Z,4.8
2019-03-27T00:19:31.651Z,4.8
2019-03-27T00:19:35.943Z,4.78
2019-03-27T00:19:40.235Z,4.79
2019-03-27T00:19:44.436Z,4.78
2019-03-27T00:19:48.725Z,4.78
2019-03-27T00:19:53.021Z,4.78
2019-03-27T00:19:57.312Z,4.77
2019-03-27T00:20:01.820Z,4.78
2019-03-27T00:20:06.241Z,4.77
2019-03-27T00:20:10.545Z,4.77
2019-03-27T00:20:14.747Z,4.76
2019-03-27T00:20:19.050Z,4.75
2019-03-27T00:20:23.349Z,4.76
2019-03-27T00:20:27.548Z,4.75
2019-03-27T00:20:31.836Z,4.75
2019-03-27T00:20:36.151Z,4.75
2019-03-27T00:20:40.345Z,4.75
2019-03-27T00:20:44.643Z,4.74
2019-03-27T00:20:48.939Z,4.74
2019-03-27T00:20:53.239Z,4.74
2019-03-27T00:20:57.525Z,4.73
2019-03-27T00:21:01.827Z,4.74
2019-03-27T00:21:06.179Z,4.73
2019-03-27T00:21:10.550Z,4.73
2019-03-27T00:21:14.857Z,4.72
2019-03-27T00:21:19.168Z,4.72
2019-03-27T00:21:23.496Z,4.71
2019-03-27T00:21:27.808Z,4.71
2019-03-27T00:21:32.110Z,4.71
2019-03-27T00:21:36.316Z,4.7
2019-03-27T00:21:40.607Z,4.7
2019-03-27T00:21:44.898Z,4.71
2019-03-27T00:21:49.186Z,4.69
2019-03-27T00:21:53.383Z,4.69
2019-03-27T00:21:57.686Z,4.68
2019-03-27T00:22:01.999Z,4.68
2019-03-27T00:22:06.393Z,4.67
2019-03-27T00:22:10.712Z,4.67
2019-03-27T00:22:15.006Z,4.67
2019-03-27T00:22:19.304Z,4.66
2019-03-27T00:22:23.499Z,4.66
2019-03-27T00:22:27.693Z,4.65
2019-03-27T00:22:31.994Z,4.65
2019-03-27T00:22:36.296Z,4.65
2019-03-27T00:22:40.590Z,4.65
2019-03-27T00:22:44.887Z,4.65
2019-03-27T00:22:49.079Z,4.65
2019-03-27T00:22:53.367Z,4.65
2019-03-27T00:22:57.662Z,4.64
2019-03-27T00:23:02.061Z,4.64
2019-03-27T00:23:06.267Z,4.64
2019-03-27T00:23:10.570Z,4.64
2019-03-27T00:23:14.889Z,4.64
2019-03-27T00:23:19.197Z,4.64
2019-03-27T00:23:23.474Z,4.63
2019-03-27T00:23:27.780Z,4.63
2019-03-27T00:23:32.077Z,4.62
2019-03-27T00:23:36.271Z,4.63
2019-03-27T00:23:40.565Z,4.62
2019-03-27T00:23:44.869Z,4.62
2019-03-27T00:23:49.165Z,4.61
2019-03-27T00:23:53.466Z,4.61
2019-03-27T00:23:57.760Z,4.6
2019-03-27T00:24:02.253Z,4.6
2019-03-27T00:24:06.603Z,4.6
2019-03-27T00:24:10.892Z,4.6
2019-03-27T00:24:15.186Z,4.59
2019-03-27T00:24:19.486Z,4.6
2019-03-27T00:24:23.695Z,4.57
2019-03-27T00:24:28.045Z,4.57
2019-03-27T00:24:32.272Z,4.56
2019-03-27T00:24:36.570Z,4.55
2019-03-27T00:24:40.869Z,4.56
2019-03-27T00:24:45.156Z,4.55
2019-03-27T00:24:49.476Z,4.54
2019-03-27T00:24:53.770Z,4.54
2019-03-27T00:24:58.060Z,4.54
2019-03-27T00:25:02.451Z,4.54
2019-03-27T00:25:06.748Z,4.52
2019-03-27T00:25:11.048Z,4.52
2019-03-27T00:25:15.345Z,4.52
2019-03-27T00:25:19.629Z,4.52
2019-03-27T00:25:23.991Z,4.5
2019-03-27T00:25:28.299Z,4.5
2019-03-27T00:25:32.586Z,4.5
2019-03-27T00:25:36.878Z,4.49
2019-03-27T00:25:41.171Z,4.48
2019-03-27T00:25:45.466Z,4.48
2019-03-27T00:25:49.824Z,4.48
2019-03-27T00:25:54.118Z,4.47
2019-03-27T00:25:58.411Z,4.47
2019-03-27T00:26:02.856Z,4.47
2019-03-27T00:26:07.168Z,4.46
2019-03-27T00:26:11.461Z,4.45
2019-03-27T00:26:15.754Z,4.44
2019-03-27T00:26:20.053Z,4.45
2019-03-27T00:26:24.342Z,4.44
2019-03-27T00:26:28.649Z,4.43
2019-03-27T00:26:32.941Z,4.43
2019-03-27T00:26:37.231Z,4.41
2019-03-27T00:26:41.532Z,4.42
2019-03-27T00:26:45.835Z,4.41
2019-03-27T00:26:50.125Z,4.4
2019-03-27T00:26:54.421Z,4.39
2019-03-27T00:26:58.709Z,4.38
2019-03-27T00:27:03.001Z,4.38
2019-03-27T00:27:07.289Z,4.37
2019-03-27T00:27:11.583Z,4.38
2019-03-27T00:27:15.791Z,4.36
2019-03-27T00:27:20.094Z,4.36
2019-03-27T00:27:24.388Z,4.36
2019-03-27T00:27:28.711Z,4.35
2019-03-27T00:27:33.000Z,4.35
2019-03-27T00:27:37.291Z,4.34
2019-03-27T00:27:41.582Z,4.34
2019-03-27T00:27:45.900Z,4.33
2019-03-27T00:27:50.196Z,4.32
2019-03-27T00:27:54.488Z,4.31
2019-03-27T00:27:58.786Z,4.31
2019-03-27T00:28:02.981Z,4.31
2019-03-27T00:28:07.276Z,4.3
2019-03-27T00:28:11.575Z,4.29
2019-03-27T00:28:15.888Z,4.28
2019-03-27T00:28:20.183Z,4.28
2019-03-27T00:28:24.479Z,4.28
2019-03-27T00:28:28.668Z,4.27
2019-03-27T00:28:32.904Z,4.27
2019-03-27T00:28:37.196Z,4.26
2019-03-27T00:28:41.521Z,4.26
2019-03-27T00:28:45.815Z,4.26
2019-03-27T00:28:50.119Z,4.26
2019-03-27T00:28:54.410Z,4.24
2019-03-27T00:28:58.703Z,4.24
2019-03-27T00:29:02.990Z,4.24
2019-03-27T00:29:07.283Z,4.24
2019-03-27T00:29:11.573Z,4.24
2019-03-27T00:29:15.787Z,4.22
2019-03-27T00:29:20.084Z,4.22
2019-03-27T00:29:24.192Z,4.22
2019-03-27T00:29:28.541Z,4.22
2019-03-27T00:29:32.882Z,4.21
2019-03-27T00:29:37.221Z,4.22
2019-03-27T00:29:41.507Z,4.21
2019-03-27T00:29:45.708Z,4.21
2019-03-27T00:29:50.003Z,4.21
2019-03-27T00:29:54.201Z,4.2
2019-03-27T00:29:58.394Z,4.19
2019-03-27T00:30:02.758Z,4.19
2019-03-27T00:30:07.065Z,4.19
2019-03-27T00:30:11.360Z,4.18
2019-03-27T00:30:15.655Z,4.18
2019-03-27T00:30:19.852Z,4.17
2019-03-27T00:30:24.138Z,4.16
2019-03-27T00:30:28.428Z,4.16
2019-03-27T00:30:32.821Z,4.15
2019-03-27T00:30:37.222Z,4.16
2019-03-27T00:30:41.550Z,4.16
2019-03-27T00:30:45.846Z,4.16
2019-03-27T00:30:50.136Z,4.15
2019-03-27T00:30:54.430Z,4.15
2019-03-27T00:30:58.718Z,4.14
2019-03-27T00:31:03.009Z,4.15
2019-03-27T00:31:07.335Z,4.13
2019-03-27T00:31:14.830Z,4.12
2019-03-27T00:31:19.123Z,4.12
2019-03-27T00:31:23.421Z,4.12
2019-03-27T00:31:27.722Z,4.1
2019-03-27T00:31:32.010Z,4.12
2019-03-27T00:31:36.295Z,4.1
2019-03-27T00:31:40.593Z,4.09
2019-03-27T00:31:44.897Z,4.1
2019-03-27T00:31:49.198Z,4.09
2019-03-27T00:31:53.564Z,4.09
2019-03-27T00:31:57.854Z,4.09
2019-03-27T00:32:02.244Z,4.07
2019-03-27T00:32:06.542Z,4.08
2019-03-27T00:32:10.838Z,4.07
2019-03-27T00:32:15.124Z,4.07
2019-03-27T00:32:19.309Z,4.06
2019-03-27T00:32:23.612Z,4.05
2019-03-27T00:32:27.813Z,4.05
2019-03-27T00:32:32.011Z,4.05
2019-03-27T00:32:36.363Z,4.04
2019-03-27T00:32:40.738Z,4.03
2019-03-27T00:32:45.030Z,4.03
2019-03-27T00:32:49.356Z,4.03
2019-03-27T00:32:53.644Z,4.01
2019-03-27T00:32:57.932Z,4.01
2019-03-27T00:33:02.301Z,4
2019-03-27T00:33:06.589Z,4
2019-03-27T00:33:10.787Z,3.99
2019-03-27T00:33:15.156Z,3.99
2019-03-27T00:33:19.447Z,3.99
2019-03-27T00:33:23.753Z,3.98
2019-03-27T00:33:28.018Z,3.97
2019-03-27T00:33:32.322Z,3.96
2019-03-27T00:33:36.624Z,3.96
2019-03-27T00:33:40.943Z,3.96
2019-03-27T00:33:45.236Z,3.95
2019-03-27T00:33:49.510Z,3.95
2019-03-27T00:33:53.718Z,3.95
2019-03-27T00:33:57.906Z,3.95
2019-03-27T00:34:02.247Z,3.94
2019-03-27T00:34:06.453Z,3.94
2019-03-27T00:34:10.757Z,3.94
2019-03-27T00:34:14.949Z,3.93
2019-03-27T00:34:19.238Z,3.93
2019-03-27T00:34:23.535Z,3.93
2019-03-27T00:34:27.732Z,3.92
2019-03-27T00:34:32.024Z,3.93
2019-03-27T00:34:36.330Z,3.93
2019-03-27T00:34:40.623Z,3.92
2019-03-27T00:34:44.921Z,3.92
2019-03-27T00:34:49.221Z,3.92
2019-03-27T00:34:53.450Z,3.91
2019-03-27T00:34:57.743Z,3.91
2019-03-27T00:35:02.030Z,3.9
2019-03-27T00:35:06.340Z,3.91
2019-03-27T00:35:10.547Z,3.91
2019-03-27T00:35:14.865Z,3.89
2019-03-27T00:35:19.195Z,3.89
2019-03-27T00:35:23.478Z,3.88
2019-03-27T00:35:27.772Z,3.89
2019-03-27T00:35:32.063Z,3.88
2019-03-27T00:35:36.361Z,3.88
2019-03-27T00:35:40.621Z,3.88
2019-03-27T00:35:44.910Z,3.88
2019-03-27T00:35:49.210Z,3.89
2019-03-27T00:35:53.502Z,3.88
2019-03-27T00:35:57.842Z,3.87
2019-03-27T00:36:02.134Z,3.87
2019-03-27T00:36:06.431Z,3.88
2019-03-27T00:36:10.722Z,3.87
2019-03-27T00:36:15.016Z,3.88
2019-03-27T00:36:19.311Z,3.87
2019-03-27T00:36:23.576Z,3.87
2019-03-27T00:36:27.870Z,3.86
2019-03-27T00:36:32.158Z,3.87
2019-03-27T00:36:36.450Z,3.87
2019-03-27T00:36:40.741Z,3.86
2019-03-27T00:36:45.030Z,3.86
2019-03-27T00:36:49.326Z,3.86
2019-03-27T00:36:53.625Z,3.85
2019-03-27T00:36:57.932Z,3.84
2019-03-27T00:37:02.307Z,3.83
2019-03-27T00:37:06.518Z,3.84
2019-03-27T00:37:10.807Z,3.84
2019-03-27T00:37:15.097Z,3.83
2019-03-27T00:37:19.295Z,3.84
2019-03-27T00:37:23.587Z,3.83
2019-03-27T00:37:27.950Z,3.83
2019-03-27T00:37:32.238Z,3.82
2019-03-27T00:37:36.527Z,3.82
2019-03-27T00:37:40.718Z,3.81
2019-03-27T00:37:45.014Z,3.82
2019-03-27T00:37:49.311Z,3.81
2019-03-27T00:37:53.604Z,3.81
2019-03-27T00:37:57.836Z,3.8
2019-03-27T00:38:02.126Z,3.81
2019-03-27T00:38:06.442Z,3.8
2019-03-27T00:38:10.650Z,3.79
2019-03-27T00:38:14.947Z,3.8
2019-03-27T00:38:19.238Z,3.79
2019-03-27T00:38:23.537Z,3.79
2019-03-27T00:38:27.825Z,3.78
2019-03-27T00:38:32.152Z,3.78
2019-03-27T00:38:36.440Z,3.77
2019-03-27T00:38:40.732Z,3.77
2019-03-27T00:38:45.091Z,3.77
2019-03-27T00:38:49.382Z,3.76
2019-03-27T00:38:53.679Z,3.76
2019-03-27T00:38:57.866Z,3.76
2019-03-27T00:39:02.313Z,3.75
2019-03-27T00:39:06.624Z,3.76
2019-03-27T00:39:10.949Z,3.75
2019-03-27T00:39:15.242Z,3.74
2019-03-27T00:39:19.432Z,3.74
2019-03-27T00:39:23.723Z,3.73
2019-03-27T00:39:28.024Z,3.74
2019-03-27T00:39:32.314Z,3.74
2019-03-27T00:39:36.602Z,3.73
2019-03-27T00:39:40.800Z,3.73
2019-03-27T00:39:45.086Z,3.72
2019-03-27T00:39:49.384Z,3.72
2019-03-27T00:39:53.671Z,3.72
2019-03-27T00:39:58.033Z,3.72
2019-03-27T00:40:02.515Z,3.72
2019-03-27T00:40:06.835Z,3.72
2019-03-27T00:40:11.157Z,3.71
2019-03-27T00:40:15.548Z,3.71
2019-03-27T00:40:19.744Z,3.7
2019-03-27T00:40:24.030Z,3.71
2019-03-27T00:40:28.321Z,3.7
2019-03-27T00:40:32.515Z,3.7
2019-03-27T00:40:36.803Z,3.69
2019-03-27T00:40:41.095Z,3.69
2019-03-27T00:40:45.388Z,3.69
2019-03-27T00:40:49.693Z,3.69
2019-03-27T00:40:53.987Z,3.69
2019-03-27T00:40:58.279Z,3.68
2019-03-27T00:41:02.569Z,3.68
2019-03-27T00:41:06.866Z,3.69
2019-03-27T00:41:11.055Z,3.69
2019-03-27T00:41:15.379Z,3.68
2019-03-27T00:41:19.682Z,3.68
2019-03-27T00:41:23.970Z,3.68
2019-03-27T00:41:28.257Z,3.68
2019-03-27T00:41:32.553Z,3.68
2019-03-27T00:41:36.851Z,3.67
2019-03-27T00:41:41.153Z,3.67
2019-03-27T00:41:45.458Z,3.67
2019-03-27T00:41:49.745Z,3.67
2019-03-27T00:41:54.041Z,3.67
2019-03-27T00:41:58.332Z,3.67
2019-03-27T00:42:02.616Z,3.67
2019-03-27T00:42:06.904Z,3.66
2019-03-27T00:42:11.097Z,3.67
2019-03-27T00:42:15.344Z,3.67
2019-03-27T00:42:19.566Z,3.67
2019-03-27T00:42:23.857Z,3.66
2019-03-27T00:42:28.152Z,3.66
2019-03-27T00:42:32.473Z,3.66
2019-03-27T00:42:36.767Z,3.66
2019-03-27T00:42:41.094Z,3.65
2019-03-27T00:42:45.386Z,3.65
2019-03-27T00:42:49.579Z,3.65
2019-03-27T00:42:53.881Z,3.65
2019-03-27T00:42:58.268Z,3.64
2019-03-27T00:43:02.710Z,3.65
2019-03-27T00:43:07.015Z,3.63
2019-03-27T00:43:11.219Z,3.63
2019-03-27T00:43:15.515Z,3.63
2019-03-27T00:43:19.807Z,3.64
2019-03-27T00:43:24.221Z,3.64
2019-03-27T00:43:28.509Z,3.64
2019-03-27T00:43:32.706Z,3.63
2019-03-27T00:43:37.001Z,3.63
2019-03-27T00:43:41.290Z,3.62
2019-03-27T00:43:45.579Z,3.63
2019-03-27T00:43:49.768Z,3.62
2019-03-27T00:43:54.062Z,3.63
2019-03-27T00:43:58.263Z,3.62
2019-03-27T00:44:02.465Z,3.63
2019-03-27T00:44:06.661Z,3.61
2019-03-27T00:44:10.852Z,3.62
2019-03-27T00:44:15.148Z,3.62
2019-03-27T00:44:19.432Z,3.62
2019-03-27T00:44:23.721Z,3.61
2019-03-27T00:44:28.058Z,3.61
2019-03-27T00:44:32.348Z,3.61
2019-03-27T00:44:36.653Z,3.6
2019-03-27T00:44:40.945Z,3.6
2019-03-27T00:44:45.144Z,3.6
2019-03-27T00:44:49.498Z,3.6
2019-03-27T00:44:53.713Z,3.59
2019-03-27T00:44:58.002Z,3.59
2019-03-27T00:45:02.651Z,3.58
2019-03-27T00:45:06.969Z,3.59
2019-03-27T00:45:11.272Z,3.58
2019-03-27T00:45:30.199Z,3.57
2019-03-27T00:45:34.494Z,3.57
2019-03-27T00:45:38.795Z,3.57
2019-03-27T00:45:43.091Z,3.56
2019-03-27T00:45:47.485Z,3.57
2019-03-27T00:45:51.776Z,3.56
2019-03-27T00:45:56.079Z,3.55
2019-03-27T00:46:00.275Z,3.55
2019-03-27T00:46:04.574Z,3.55
2019-03-27T00:46:08.867Z,3.55
2019-03-27T00:46:13.188Z,3.54
2019-03-27T00:46:17.489Z,3.54
2019-03-27T00:46:21.829Z,3.54
2019-03-27T00:46:26.140Z,3.53
2019-03-27T00:46:30.426Z,3.53
2019-03-27T00:46:34.730Z,3.53
2019-03-27T00:46:39.044Z,3.52
2019-03-27T00:46:43.416Z,3.52
2019-03-27T00:46:47.706Z,3.52
2019-03-27T00:46:51.994Z,3.52
2019-03-27T00:46:56.192Z,3.52
2019-03-27T00:47:00.483Z,3.51
2019-03-27T00:47:04.832Z,3.51
2019-03-27T00:47:09.124Z,3.5
2019-03-27T00:47:13.415Z,3.5
2019-03-27T00:47:17.614Z,3.49
2019-03-27T00:47:21.815Z,3.5
2019-03-27T00:47:26.010Z,3.49
2019-03-27T00:47:30.311Z,3.49
2019-03-27T00:47:34.606Z,3.49
2019-03-27T00:47:38.819Z,3.49
2019-03-27T00:47:43.110Z,3.48
2019-03-27T00:47:47.315Z,3.48
2019-03-27T00:47:51.617Z,3.48
2019-03-27T00:47:55.819Z,3.48
2019-03-27T00:48:00.183Z,3.48
2019-03-27T00:48:04.391Z,3.48
2019-03-27T00:48:08.694Z,3.48
2019-03-27T00:48:12.999Z,3.48
2019-03-27T00:48:17.195Z,3.48
2019-03-27T00:48:21.481Z,3.48
2019-03-27T00:48:25.679Z,3.47
2019-03-27T00:48:29.877Z,3.47
2019-03-27T00:48:34.171Z,3.47
2019-03-27T00:48:38.546Z,3.47
2019-03-27T00:48:42.954Z,3.47
2019-03-27T00:48:47.247Z,3.47
2019-03-27T00:48:51.539Z,3.47
2019-03-27T00:48:55.897Z,3.46
2019-03-27T00:49:00.192Z,3.46
2019-03-27T00:49:04.351Z,3.46
2019-03-27T00:49:08.654Z,3.45
2019-03-27T00:49:12.966Z,3.45
2019-03-27T00:49:17.253Z,3.45
2019-03-27T00:49:21.567Z,3.45
2019-03-27T00:49:25.863Z,3.45
2019-03-27T00:49:30.158Z,3.45
2019-03-27T00:49:34.452Z,3.45
2019-03-27T00:49:38.738Z,3.45
2019-03-27T00:49:43.041Z,3.45
2019-03-27T00:49:47.401Z,3.43
2019-03-27T00:49:51.698Z,3.44
2019-03-27T00:49:55.989Z,3.43
2019-03-27T00:50:00.272Z,3.43
2019-03-27T00:50:04.628Z,3.43
2019-03-27T00:50:08.951Z,3.43
2019-03-27T00:50:13.260Z,3.43
2019-03-27T00:50:17.454Z,3.43
2019-03-27T00:50:21.757Z,3.43
2019-03-27T00:50:25.957Z,3.42
2019-03-27T00:50:30.353Z,3.42
2019-03-27T00:50:34.647Z,3.42
2019-03-27T00:50:38.946Z,3.42
2019-03-27T00:50:43.051Z,3.42
2019-03-27T00:50:47.253Z,3.42
2019-03-27T00:50:51.473Z,3.41
2019-03-27T00:50:55.844Z,3.41
2019-03-27T00:51:00.143Z,3.41
2019-03-27T00:51:04.437Z,3.4
2019-03-27T00:51:08.637Z,3.4
2019-03-27T00:51:12.941Z,3.41
2019-03-27T00:51:17.249Z,3.41
2019-03-27T00:51:21.445Z,3.4
2019-03-27T00:51:25.742Z,3.41
2019-03-27T00:51:30.032Z,3.4
2019-03-27T00:51:34.237Z,3.4
2019-03-27T00:51:38.602Z,3.41
2019-03-27T00:51:42.905Z,3.4
2019-03-27T00:51:47.202Z,3.4
2019-03-27T00:51:51.575Z,3.39
2019-03-27T00:51:55.868Z,3.4
2019-03-27T00:52:00.163Z,3.39
2019-03-27T00:52:04.459Z,3.4
2019-03-27T00:52:08.748Z,3.39
2019-03-27T00:52:13.038Z,3.39
2019-03-27T00:52:17.328Z,3.39
2019-03-27T00:52:21.433Z,3.39
2019-03-27T00:52:25.731Z,3.38
2019-03-27T00:52:29.956Z,3.39
2019-03-27T00:52:34.259Z,3.39
2019-03-27T00:52:38.564Z,3.37
2019-03-27T00:52:42.856Z,3.37
2019-03-27T00:52:47.235Z,3.37
2019-03-27T00:52:51.624Z,3.38
2019-03-27T00:52:55.961Z,3.36
2019-03-27T00:53:00.270Z,3.36
2019-03-27T00:53:04.578Z,3.36
2019-03-27T00:53:08.883Z,3.36
2019-03-27T00:53:13.202Z,3.37
2019-03-27T00:53:17.524Z,3.36
2019-03-27T00:53:21.827Z,3.35
2019-03-27T00:53:26.190Z,3.36
2019-03-27T00:53:30.489Z,3.36
2019-03-27T00:53:34.784Z,3.36
2019-03-27T00:53:39.075Z,3.36
2019-03-27T00:53:43.269Z,3.36
2019-03-27T00:53:47.570Z,3.36
2019-03-27T00:53:51.944Z,3.36
2019-03-27T00:53:56.248Z,3.36
2019-03-27T00:54:00.560Z,3.36
2019-03-27T00:54:04.761Z,3.36
2019-03-27T00:54:09.053Z,3.36
2019-03-27T00:54:13.339Z,3.35
2019-03-27T00:54:17.643Z,3.35
2019-03-27T00:54:21.940Z,3.36
2019-03-27T00:54:26.241Z,3.35
2019-03-27T00:54:30.440Z,3.35
2019-03-27T00:54:34.738Z,3.35
2019-03-27T00:54:39.033Z,3.35
2019-03-27T00:54:43.288Z,3.34
2019-03-27T00:54:47.584Z,3.35
2019-03-27T00:54:51.879Z,3.34
2019-03-27T00:54:56.172Z,3.34
2019-03-27T00:55:00.492Z,3.34
2019-03-27T00:55:04.825Z,3.34
2019-03-27T00:55:09.130Z,3.34
2019-03-27T00:55:13.430Z,3.34
2019-03-27T00:55:17.734Z,3.33
2019-03-27T00:55:22.025Z,3.33
2019-03-27T00:55:26.317Z,3.33
2019-03-27T00:55:30.594Z,3.33
2019-03-27T00:55:34.888Z,3.33
2019-03-27T00:55:39.198Z,3.32
2019-03-27T00:55:43.494Z,3.34
2019-03-27T00:55:47.799Z,3.32
2019-03-27T00:55:52.102Z,3.32
2019-03-27T00:55:56.474Z,3.33
2019-03-27T00:56:00.767Z,3.33
2019-03-27T00:56:05.078Z,3.32
2019-03-27T00:56:09.394Z,3.33
2019-03-27T00:56:13.687Z,3.32
2019-03-27T00:56:18.045Z,3.32
2019-03-27T00:56:22.341Z,3.32
2019-03-27T00:56:26.631Z,3.32
2019-03-27T00:56:30.922Z,3.32
2019-03-27T00:56:35.216Z,3.31
2019-03-27T00:56:39.520Z,3.32
2019-03-27T00:56:43.809Z,3.32
2019-03-27T00:56:48.194Z,3.31
2019-03-27T00:56:52.492Z,3.31
2019-03-27T00:56:56.783Z,3.31
2019-03-27T00:57:01.078Z,3.31
2019-03-27T00:57:05.378Z,3.31
2019-03-27T00:57:09.703Z,3.31
2019-03-27T00:57:14.003Z,3.31
2019-03-27T00:57:18.296Z,3.31
2019-03-27T00:57:22.525Z,3.31
2019-03-27T00:57:26.717Z,3.31
2019-03-27T00:57:31.023Z,3.3
2019-03-27T00:57:35.334Z,3.3
2019-03-27T00:57:39.639Z,3.31
2019-03-27T00:57:43.941Z,3.3
2019-03-27T00:57:48.244Z,3.3
2019-03-27T00:57:52.543Z,3.3